• Join FlightAware (Why Join?)
  • Login
  • US Flag 
01:17PM EDT


 

Airport Tracker/Info


-or-


 

Live Flight TrackerFlight Track Log ✈ N217TM ✈ 04-Oct-2013 ✈ KIOW - KHQZ

Flight Track Log - Related Links

Times and Time Zones

All times are in EDT time to prevent confusion due to time zone crossing. See the N217TM flight status page for this flight to view local times or setup timezone preferences in your user account.

Time Position Orientation Groundspeed Altitude Reporting Facility
EDT Latitude Longitude Course Direction KTS MPH feet Rate Location/Type
03:18PM 41.5672 -91.5292 205° Southwest 139 160 3,900  Level Chicago Center
03:19PM 41.5300 -91.5547 207° Southwest 149 171 5,400 1,500 Climbing Chicago Center
03:20PM 41.4944 -91.5786 207° Southwest 144 166 7,100 1,680 Climbing Chicago Center
03:21PM 41.4533 -91.6031 204° Southwest 138 159 8,900 1,560 Climbing Chicago Center
03:22PM 41.4197 -91.6264 208° Southwest 136 157 10,400 1,380 Climbing Chicago Center
03:24PM 41.3054 -91.7612 205° Southwest  Level Estimated
03:24PM 41.3842 -91.6478 204° Southwest 141 162 11,800  Level Chicago Center
03:25PM 41.3481 -91.6725 207° Southwest 146 168 13,300 1,020 Climbing Chicago Center
03:26PM 41.3081 -91.6975 205° Southwest 159 183 14,000 300 Climbing Chicago Center
03:27PM 41.2456 -91.7372 206° Southwest 209 241 14,000  Level Chicago Center
03:28PM 41.1950 -91.7708 207° Southwest 225 259 14,100 480 Climbing Chicago Center
03:29PM 41.1314 -91.8100 205° Southwest 214 246 15,000 600 Climbing Chicago Center
03:30PM 41.0758 -91.8458 206° Southwest 222 255 15,400 780 Climbing Chicago Center
03:31PM 41.0253 -91.8772 205° Southwest 207 238 16,600 720 Climbing Chicago Center
03:32PM 40.9747 -91.9108 207° Southwest 205 236 17,000 240 Climbing Chicago Center
03:33PM 40.9189 -91.9461 206° Southwest 218 251 17,100 660 Climbing Chicago Center
03:34PM 40.8556 -91.9853 205° Southwest 211 243 18,400 1,200 Climbing Chicago Center
03:35PM 40.8089 -92.0147 206° Southwest 190 219 19,600 1,140 Climbing Chicago Center
03:36PM 40.7639 -92.0433 206° Southwest 181 208 20,800 1,200 Climbing Chicago Center
03:37PM 40.7208 -92.0711 206° Southwest 174 200 22,100 1,140 Climbing Chicago Center
03:38PM 40.6800 -92.0953 204° Southwest 164 189 23,200 900 Climbing Chicago Center
03:39PM 40.6319 -92.1264 206° Southwest 164 189 24,000 480 Climbing Chicago Center
03:40PM 40.6128 -92.1383 205° Southwest 169 194 24,000  Level Kansas City Center
03:41PM 40.5606 -92.1706 205° Southwest 199 229 24,000  Level Kansas City Center
03:42PM 40.4939 -92.2128 206° Southwest 219 252 24,000  Level Kansas City Center
03:43PM 40.4364 -92.2486 205° Southwest 227 261 24,000  Level Kansas City Center
03:44PM 40.3789 -92.2839 205° Southwest 228 262 24,000  Level Kansas City Center
03:44PM 40.3444 -92.3058 206° Southwest 228 262 24,000  Level Chicago Center
03:45PM 40.3214 -92.3197 205° Southwest 228 262 24,000  Level Kansas City Center
03:46PM 40.2622 -92.3558 205° Southwest 226 260 24,000  Level Kansas City Center
03:47PM 40.1986 -92.3956 206° Southwest 226 260 24,000  Level Kansas City Center
03:48PM 40.1436 -92.4292 205° Southwest 227 261 24,000  Level Kansas City Center
03:49PM 40.0806 -92.4689 206° Southwest 226 260 24,000  Level Kansas City Center
03:50PM 40.0250 -92.5033 205° Southwest 226 260 24,000  Level Kansas City Center
03:51PM 39.9675 -92.5383 205° Southwest 228 262 24,000  Level Kansas City Center
03:52PM 39.9111 -92.5736 206° Southwest 227 261 24,000  Level Kansas City Center
03:53PM 39.8531 -92.6075 204° Southwest 229 264 24,000  Level Kansas City Center
03:54PM 39.7853 -92.6506 206° Southwest 228 262 24,000  Level Kansas City Center
03:55PM 39.7278 -92.6844 204° Southwest 228 262 24,000  Level Kansas City Center
03:56PM 39.6703 -92.7200 205° Southwest 229 264 24,000  Level Kansas City Center
03:57PM 39.6125 -92.7553 205° Southwest 230 265 24,000  Level Kansas City Center
03:58PM 39.5553 -92.7881 204° Southwest 228 262 24,000  Level Kansas City Center
03:59PM 39.4881 -92.8306 206° Southwest 226 260 24,000  Level Kansas City Center
04:00PM 39.4319 -92.8642 205° Southwest 224 258 24,000  Level Kansas City Center
04:01PM 39.3758 -92.8981 205° Southwest 224 258 24,000  Level Kansas City Center
04:02PM 39.3197 -92.9319 205° Southwest 224 258 24,000  Level Kansas City Center
04:03PM 39.2633 -92.9661 205° Southwest 224 258 24,000  Level Kansas City Center
04:04PM 39.1961 -93.0061 205° Southwest 223 257 24,000  Level Kansas City Center
04:05PM 39.1408 -93.0394 205° Southwest 221 254 24,000  Level Kansas City Center
04:06PM 39.0844 -93.0731 205° Southwest 224 258 24,000  Level Kansas City Center
04:07PM 39.0283 -93.1072 205° Southwest 223 257 24,000  Level Kansas City Center
04:09PM 38.9628 -93.1453 204° Southwest 223 257 24,000  Level Kansas City Center
04:10PM 38.9061 -93.1803 206° Southwest 223 257 24,000  Level Kansas City Center
04:11PM 38.8497 -93.2122 204° Southwest 222 255 24,000  Level Kansas City Center
04:12PM 38.7928 -93.2469 205° Southwest 225 259 24,000  Level Kansas City Center
04:13PM 38.7372 -93.2786 204° Southwest 223 257 24,000  Level Kansas City Center
04:14PM 38.6800 -93.3125 205° Southwest 223 257 24,000  Level Kansas City Center
04:15PM 38.6119 -93.3539 205° Southwest 224 258 24,000  Level Kansas City Center
04:16PM 38.5550 -93.3872 205° Southwest 225 259 24,000  Level Kansas City Center
04:17PM 38.4975 -93.4208 205° Southwest 226 260 24,000  Level Kansas City Center
04:18PM 38.4400 -93.4539 204° Southwest 227 261 24,000  Level Kansas City Center
04:19PM 38.3819 -93.4878 205° Southwest 228 262 24,000  Level Kansas City Center
04:20PM 38.3247 -93.5214 205° Southwest 227 261 24,000  Level Kansas City Center
04:21PM 38.2561 -93.5614 205° Southwest 227 261 24,000  Level Kansas City Center
04:22PM 38.1978 -93.5953 205° Southwest 229 264 24,000  Level Kansas City Center
04:23PM 38.1411 -93.6286 205° Southwest 226 260 24,000  Level Kansas City Center
04:24PM 38.0831 -93.6619 204° Southwest 227 261 24,000  Level Kansas City Center
04:25PM 38.0261 -93.6944 204° Southwest 225 259 24,000  Level Kansas City Center
04:26PM 37.9692 -93.7278 205° Southwest 226 260 24,000  Level Kansas City Center
04:27PM 37.8986 -93.7683 204° Southwest 229 264 24,000  Level Kansas City Center
04:28PM 37.8419 -93.8017 205° Southwest 227 261 24,000  Level Kansas City Center
04:29PM 37.7853 -93.8339 204° Southwest 225 259 24,000  Level Kansas City Center
04:30PM 37.7275 -93.8672 205° Southwest 227 261 24,000  Level Kansas City Center
04:31PM 37.6694 -93.8989 203° Southwest 227 261 24,000  Level Kansas City Center
04:32PM 37.6122 -93.9328 205° Southwest 227 261 24,000  Level Kansas City Center
04:33PM 37.5436 -93.9719 204° Southwest 225 259 24,000  Level Kansas City Center
04:34PM 37.4850 -94.0042 204° Southwest 227 261 24,000  Level Kansas City Center
04:35PM 37.4272 -94.0367 204° Southwest 227 261 24,000  Level Kansas City Center
04:36PM 37.3703 -94.0692 204° Southwest 226 260 24,000  Level Kansas City Center
04:37PM 37.3078 -94.1036 204° Southwest 226 260 24,000  Level Kansas City Center
04:39PM 37.2494 -94.1375 205° Southwest 228 262 24,000  Level Kansas City Center
04:40PM 37.1906 -94.1694 203° Southwest 229 264 24,000  Level Kansas City Center
04:41PM 37.1336 -94.2019 204° Southwest 226 260 24,000  Level Kansas City Center
04:42PM 37.0758 -94.2344 204° Southwest 227 261 24,000  Level Kansas City Center
04:43PM 37.0058 -94.2733 204° Southwest 227 261 24,000  Level Kansas City Center
04:44PM 36.9492 -94.3069 205° Southwest 226 260 24,000  Level Kansas City Center
04:45PM 36.8911 -94.3403 205° Southwest 228 262 24,000  Level Kansas City Center
04:46PM 36.8308 -94.3719 203° Southwest 231 266 24,000  Level Kansas City Center
04:47PM 36.7733 -94.4050 205° Southwest 229 264 24,000  Level Kansas City Center
04:48PM 36.7158 -94.4364 204° Southwest 227 261 24,000  Level Kansas City Center
04:49PM 36.6572 -94.4689 204° Southwest 228 262 24,000  Level Kansas City Center
04:50PM 36.5878 -94.5081 204° Southwest 227 261 24,000  Level Kansas City Center
04:51PM 36.5294 -94.5408 204° Southwest 228 262 24,000  Level Kansas City Center
04:52PM 36.4714 -94.5736 204° Southwest 229 264 24,000  Level Kansas City Center
04:53PM 36.4125 -94.6047 203° Southwest 228 262 24,000  Level Kansas City Center
04:54PM 36.3536 -94.6381 205° Southwest 229 264 24,000  Level Kansas City Center
04:55PM 36.2967 -94.6697 204° Southwest 226 260 24,000  Level Kansas City Center
04:56PM 36.2381 -94.7031 205° Southwest 228 262 24,000  Level Kansas City Center
04:57PM 36.1689 -94.7431 205° Southwest 228 262 24,000  Level Kansas City Center
04:58PM 36.1106 -94.7761 205° Southwest 229 264 24,000  Level Kansas City Center
04:59PM 36.0525 -94.8092 205° Southwest 229 264 24,000  Level Kansas City Center
05:00PM 35.9942 -94.8428 205° Southwest 229 264 24,000  Level Kansas City Center
05:01PM 35.9353 -94.8750 204° Southwest 230 265 24,000  Level Kansas City Center
05:03PM 35.8033 -94.9544 206° Southwest 233 268 24,000  Level Fort Worth Center
05:04PM 35.7456 -94.9867 204° Southwest 233 268 24,000  Level Fort Worth Center
05:05PM 35.6858 -95.0217 205° Southwest 233 268 24,000  Level Fort Worth Center
05:06PM 35.6258 -95.0517 202° Southwest 233 268 24,000  Level Fort Worth Center
05:07PM 35.5681 -95.0839 204° Southwest 233 268 24,000  Level Fort Worth Center
05:08PM 35.5103 -95.1161 204° Southwest 233 268 24,000  Level Fort Worth Center
05:09PM 35.4506 -95.1508 205° Southwest 233 268 24,000  Level Fort Worth Center
05:10PM 35.3906 -95.1856 205° Southwest 233 268 24,000  Level Fort Worth Center
05:11PM 35.3328 -95.2175 204° Southwest 233 268 24,000  Level Fort Worth Center
05:12PM 35.2750 -95.2494 204° Southwest 233 268 24,000 -60 Level Fort Worth Center
05:13PM 35.2233 -95.2764 203° Southwest 233 268 23,900 -540 Descending Fort Worth Center
05:14PM 35.1614 -95.3108 204° Southwest 238 274 23,000 -480 Descending Fort Worth Center
05:15PM 35.0911 -95.3533 206° Southwest 248 285 23,000  Level Fort Worth Center
05:16PM 35.0333 -95.3850 204° Southwest 248 285 23,000  Level Fort Worth Center
05:17PM 34.9733 -95.4169 204° Southwest 243 280 23,000  Level Fort Worth Center
05:18PM 34.9153 -95.4511 206° Southwest 237 273 23,000  Level Fort Worth Center
05:19PM 34.8575 -95.4803 203° Southwest 237 273 23,000  Level Fort Worth Center
05:20PM 34.7975 -95.5144 205° Southwest 237 273 23,000  Level Fort Worth Center
05:21PM 34.7394 -95.5436 202° Southwest 237 273 23,000  Level Fort Worth Center
05:22PM 34.6775 -95.5778 204° Southwest 242 278 23,000  Level Fort Worth Center
05:23PM 34.6172 -95.6094 203° Southwest 242 278 23,000 -540 Level Fort Worth Center
05:24PM 34.5594 -95.6408 204° Southwest 242 278 22,000 -1,500 Descending Fort Worth Center
05:25PM 34.4931 -95.6775 204° Southwest 242 278 20,100 -2,040 Descending Fort Worth Center
05:26PM 34.4228 -95.7142 203° Southwest 259 298 17,900 -2,160 Descending Fort Worth Center
05:27PM 34.3564 -95.7531 206° Southwest 265 305 15,800 -2,160 Descending Fort Worth Center
05:28PM 34.2922 -95.7872 204° Southwest 265 305 13,700 -2,340 Descending Fort Worth Center
05:29PM 34.2322 -95.8208 205° Southwest 254 292 11,100 -1,860 Descending Fort Worth Center
05:30PM 34.1719 -95.8522 203° Southwest 249 287 10,000 -600 Descending Fort Worth Center
05:31PM 34.1161 -95.8808 203° Southwest 243 280 10,000  Level Fort Worth Center
05:32PM 34.0539 -95.9144 204° Southwest 238 274 10,000  Level Fort Worth Center
05:33PM 33.9958 -95.9456 204° Southwest 238 274 10,000  Level Fort Worth Center
05:34PM 33.9336 -95.9789 204° Southwest 238 274 10,000  Level Fort Worth Center
05:35PM 33.8733 -96.0100 203° Southwest 238 274 10,000  Level Fort Worth Center
05:36PM 33.8133 -96.0461 207° Southwest 238 274 10,000  Level Fort Worth Center
05:37PM 33.7572 -96.0744 203° Southwest 238 274 10,000  Level Fort Worth Center
05:38PM 33.6886 -96.1078 202° Southwest 238 274 10,000  Level Fort Worth Center
05:39PM 33.6369 -96.1386 206° Southwest 243 280 10,000  Level Fort Worth Center
05:40PM 33.5683 -96.1744 204° Southwest 238 274 10,000  Level Fort Worth Center
05:41PM 33.5144 -96.2025 203° Southwest 238 274 10,000 -60 Level Fort Worth Center
05:42PM 33.4478 -96.2383 204° Southwest 238 274 9,900 -600 Descending Fort Worth Center
05:43PM 33.3981 -96.2639 203° Southwest 233 268 8,900 -1,440 Descending Fort Worth Center
05:44PM 33.3356 -96.2969 204° Southwest 228 262 7,000 -1,500 Descending Fort Worth Center
05:45PM 33.2900 -96.3225 205° Southwest 218 251 5,900 -600 Descending Fort Worth Center
05:46PM 33.2486 -96.3578 215° Southwest 180 207 5,900 -480 Level Fort Worth Center
05:47PM 33.2217 -96.4003 233° Southwest 175 201 5,000 -420 Descending Fort Worth Center
05:49PM 33.1833 -96.4667 235° Southwest 174 200 5,000  Level Dallas / Fort Worth TRACON
05:50PM 33.1333 -96.4833 196° South 173 199 5,000  Level Dallas / Fort Worth TRACON
05:50PM 33.1078 -96.4958 202° Southwest 159 183 5,000 -300 Level Fort Worth Center
05:51PM 33.0639 -96.5011 186° South 165 190 4,600 -1,080 Descending Fort Worth Center
05:52PM 33.0158 -96.5092 188° South 170 196 2,900 -840 Descending Fort Worth Center
05:53PM 32.9681 -96.5169 188° South 180 207 3,000  Climbing Fort Worth Center
05:54PM 32.9158 -96.5225 185° South 180 207 3,000 3,480 Level Fort Worth Center
05:55PM 32.8636 -96.5281 185° South 180 207 10,000 3,420 Climbing Fort Worth Center
05:56PM 32.8117 -96.5358 187° South 180 207 10,000  Level Fort Worth Center
05:58PM 32.7470 -96.5304 180° South  Level Estimated
06:05PM 32.7470 -96.5304 180° South  Level Estimated
06:06PM 32.7470 -96.5304 180° South  Level Estimated
06:07PM 32.7470 -96.5304 180° South  Level Estimated
06:08PM 32.7470 -96.5304 180° South  Level Estimated
06:09PM 32.7470 -96.5304 180° South  Level Estimated
06:10PM 32.7470 -96.5304 180° South  Level Estimated
06:11PM 32.7470 -96.5304 180° South  Level Estimated